createdAt,value
2019-06-27T00:01:24.309Z,75.23
2019-06-27T00:03:52.750Z,75.99
2019-06-27T00:06:21.268Z,76.71
2019-06-27T00:08:49.777Z,76.46
2019-06-27T00:11:18.315Z,75.90
2019-06-27T00:13:46.957Z,74.88
2019-06-27T00:16:15.381Z,75.03
2019-06-27T00:18:43.819Z,74.71
2019-06-27T00:21:12.284Z,75.59
2019-06-27T00:23:40.738Z,76.21
2019-06-27T00:26:09.171Z,77.61
2019-06-27T00:28:37.637Z,77.25
2019-06-27T00:31:06.068Z,78.52
2019-06-27T00:33:34.567Z,77.59
2019-06-27T00:36:03.180Z,77.13
2019-06-27T00:38:31.644Z,76.77
2019-06-27T00:41:00.160Z,75.85
2019-06-27T00:43:28.613Z,75.50
2019-06-27T00:45:57.217Z,75.53
2019-06-27T00:48:25.716Z,75.38
2019-06-27T00:50:54.251Z,77.31
2019-06-27T00:53:22.683Z,77.23
2019-06-27T00:55:51.112Z,77.01
2019-06-27T00:58:19.569Z,77.16
2019-06-27T01:00:48.075Z,76.70
2019-06-27T01:03:16.790Z,77.00
2019-06-27T01:05:45.367Z,77.01
2019-06-27T01:08:13.797Z,77.53
2019-06-27T01:10:42.300Z,77.50
2019-06-27T01:13:10.841Z,77.59
2019-06-27T01:15:39.342Z,77.43
2019-06-27T01:18:07.914Z,77.89
2019-06-27T01:20:36.379Z,78.44
2019-06-27T01:23:04.949Z,77.79
2019-06-27T01:25:33.378Z,73.98
2019-06-27T01:28:01.836Z,72.48
2019-06-27T01:30:30.351Z,72.78
2019-06-27T01:32:58.848Z,72.48
2019-06-27T01:35:27.303Z,73.17
2019-06-27T01:37:55.730Z,74.30
2019-06-27T01:40:24.305Z,75.58
2019-06-27T01:42:52.940Z,72.01
2019-06-27T01:45:26.071Z,70.99
2019-06-27T01:47:54.521Z,71.08
2019-06-27T01:50:22.997Z,72.24
2019-06-27T01:52:51.529Z,73.53
2019-06-27T01:55:20.109Z,74.98
2019-06-27T01:57:48.710Z,72.75
2019-06-27T02:00:17.920Z,71.46
2019-06-27T02:02:46.358Z,71.74
2019-06-27T02:05:15.599Z,71.59
2019-06-27T02:07:44.350Z,75.24
2019-06-27T02:10:13.118Z,77.30
2019-06-27T02:12:41.731Z,77.80
2019-06-27T02:15:10.802Z,78.00
2019-06-27T02:17:39.302Z,78.54
2019-06-27T02:20:09.203Z,79.86
2019-06-27T02:22:37.768Z,80.43
2019-06-27T02:25:07.142Z,79.60
2019-06-27T02:27:35.700Z,80.35
2019-06-27T02:30:07.768Z,80.06
2019-06-27T02:32:36.365Z,79.75
2019-06-27T02:35:06.828Z,80.21
2019-06-27T02:37:35.323Z,79.01
2019-06-27T02:40:05.500Z,76.28
2019-06-27T02:42:33.951Z,74.18
2019-06-27T02:45:02.408Z,74.92
2019-06-27T02:47:30.814Z,74.80
2019-06-27T02:49:59.271Z,74.98
2019-06-27T02:52:27.710Z,77.99
2019-06-27T02:54:56.166Z,78.26
2019-06-27T02:57:24.876Z,79.29
2019-06-27T02:59:54.137Z,80.49
2019-06-27T03:02:22.555Z,80.48
2019-06-27T03:04:51.025Z,80.92
2019-06-27T03:07:19.527Z,81.25
2019-06-27T03:09:48.026Z,81.40
2019-06-27T03:12:16.483Z,81.43
2019-06-27T03:14:44.989Z,81.76
2019-06-27T03:17:13.487Z,79.61
2019-06-27T03:19:42.101Z,79.08
2019-06-27T03:22:10.629Z,78.63
2019-06-27T03:24:39.037Z,75.83
2019-06-27T03:27:10.532Z,76.21
2019-06-27T03:29:38.965Z,75.25
2019-06-27T03:32:07.397Z,76.40
2019-06-27T03:34:35.923Z,75.77
2019-06-27T03:37:04.421Z,77.60
2019-06-27T03:39:33.083Z,76.03
2019-06-27T03:42:01.850Z,76.37
2019-06-27T03:44:30.253Z,75.53
2019-06-27T03:46:58.678Z,76.25
2019-06-27T03:49:27.218Z,76.88
2019-06-27T03:51:55.651Z,76.26
2019-06-27T03:54:24.127Z,77.19
2019-06-27T03:56:52.654Z,76.94
2019-06-27T03:59:21.165Z,76.70
2019-06-27T04:01:49.672Z,76.93
2019-06-27T04:04:18.118Z,76.78
2019-06-27T04:06:46.550Z,76.47
2019-06-27T04:09:14.983Z,76.66
2019-06-27T04:11:43.881Z,77.49
2019-06-27T04:14:12.319Z,80.25
2019-06-27T04:16:40.747Z,79.83
2019-06-27T04:19:09.342Z,79.30
2019-06-27T04:21:37.842Z,79.20
2019-06-27T04:24:06.423Z,79.37
2019-06-27T04:26:34.881Z,78.88
2019-06-27T04:29:03.319Z,79.81
2019-06-27T04:31:31.807Z,79.02
2019-06-27T04:34:00.336Z,78.71
2019-06-27T04:36:28.789Z,76.59
2019-06-27T04:38:57.219Z,76.52
2019-06-27T04:41:25.683Z,73.80
2019-06-27T04:43:54.113Z,70.06
2019-06-27T04:46:22.603Z,69.52
2019-06-27T04:48:51.223Z,68.66
2019-06-27T04:51:19.658Z,68.08
2019-06-27T04:53:48.086Z,68.71
2019-06-27T04:56:16.554Z,66.71
2019-06-27T04:58:44.983Z,65.74
2019-06-27T05:01:13.415Z,66.57
2019-06-27T05:03:41.938Z,65.01
2019-06-27T05:06:10.513Z,65.21
2019-06-27T05:08:38.957Z,65.33
2019-06-27T05:11:07.416Z,66.13
2019-06-27T05:13:35.914Z,64.24
2019-06-27T05:16:04.425Z,63.85
2019-06-27T05:18:32.889Z,63.85
2019-06-27T05:21:01.320Z,61.92
2019-06-27T05:23:29.755Z,61.09
2019-06-27T05:25:58.208Z,60.43
2019-06-27T05:28:26.667Z,60.62
2019-06-27T05:30:55.344Z,58.45
2019-06-27T05:33:23.868Z,59.74
2019-06-27T05:35:52.851Z,58.49
2019-06-27T05:38:21.267Z,58.28
2019-06-27T05:40:49.780Z,57.86
2019-06-27T05:43:18.247Z,58.20
2019-06-27T05:45:46.694Z,58.58
2019-06-27T05:48:15.227Z,58.92
2019-06-27T05:50:43.655Z,57.89
2019-06-27T05:53:12.553Z,57.55
2019-06-27T05:55:41.026Z,57.72
2019-06-27T05:58:09.483Z,56.79
2019-06-27T06:00:38.058Z,56.81
2019-06-27T06:03:06.620Z,57.07
2019-06-27T06:05:35.068Z,56.73
2019-06-27T06:08:03.635Z,56.67
2019-06-27T06:10:32.161Z,56.10
2019-06-27T06:13:00.599Z,55.42
2019-06-27T06:15:29.175Z,56.84
2019-06-27T06:17:57.789Z,55.86
2019-06-27T06:20:26.780Z,55.09
2019-06-27T06:22:55.201Z,54.89
2019-06-27T06:25:23.742Z,54.47
2019-06-27T06:27:52.175Z,53.42
2019-06-27T06:30:21.348Z,53.34
2019-06-27T06:32:49.819Z,54.33
2019-06-27T06:35:18.255Z,55.27
2019-06-27T06:37:46.753Z,55.01
2019-06-27T06:40:15.354Z,53.97
2019-06-27T06:42:43.786Z,55.25
2019-06-27T06:45:12.568Z,54.56
2019-06-27T06:47:41.061Z,56.01
2019-06-27T06:50:09.829Z,54.66
2019-06-27T06:52:38.270Z,54.13
2019-06-27T06:55:07.374Z,55.39
2019-06-27T06:57:35.873Z,56.40
2019-06-27T07:00:06.688Z,53.96
2019-06-27T07:02:35.166Z,53.97
2019-06-27T07:05:04.035Z,53.63
2019-06-27T07:07:32.446Z,53.54
2019-06-27T07:10:00.912Z,52.81
2019-06-27T07:12:29.417Z,53.71
2019-06-27T07:14:57.900Z,54.19
2019-06-27T07:17:26.354Z,55.52
2019-06-27T07:19:57.507Z,52.82
2019-06-27T07:22:24.933Z,52.39
2019-06-27T07:24:53.393Z,54.17
2019-06-27T07:27:21.833Z,54.92
2019-06-27T07:29:50.474Z,53.91
2019-06-27T07:32:18.961Z,52.08
2019-06-27T07:34:47.416Z,53.42
2019-06-27T07:37:15.849Z,53.29
2019-06-27T07:39:44.297Z,52.54
2019-06-27T07:42:12.810Z,51.42
2019-06-27T07:44:41.237Z,51.31
2019-06-27T07:47:09.694Z,52.21
2019-06-27T07:49:38.121Z,53.09
2019-06-27T07:52:06.703Z,51.92
2019-06-27T07:54:35.170Z,52.13
2019-06-27T07:57:03.612Z,51.68
2019-06-27T07:59:32.101Z,50.79
2019-06-27T08:02:00.625Z,50.77
2019-06-27T08:04:29.062Z,49.72
2019-06-27T08:06:57.503Z,51.04
2019-06-27T08:09:25.954Z,52.24
2019-06-27T08:11:54.391Z,52.76
2019-06-27T08:14:22.821Z,51.91
2019-06-27T08:16:51.359Z,51.47
2019-06-27T08:19:19.785Z,53.07
2019-06-27T08:21:48.244Z,51.45
2019-06-27T08:24:16.685Z,51.01
2019-06-27T08:26:45.119Z,51.20
2019-06-27T08:29:13.658Z,51.34
2019-06-27T08:31:51.493Z,50.58
2019-06-27T08:34:12.362Z,49.50
2019-06-27T08:36:40.867Z,47.88
2019-06-27T08:39:09.410Z,48.64
2019-06-27T08:41:37.984Z,48.58
2019-06-27T08:44:06.411Z,48.63
2019-06-27T08:46:34.944Z,47.16
2019-06-27T08:49:03.384Z,47.09
2019-06-27T08:51:31.806Z,46.81
2019-06-27T08:54:00.337Z,46.97
2019-06-27T08:56:28.765Z,46.46
2019-06-27T08:58:57.205Z,46.89
2019-06-27T09:01:25.736Z,46.41
2019-06-27T09:03:54.171Z,45.47
2019-06-27T09:06:22.653Z,45.67
2019-06-27T09:08:51.125Z,45.79
2019-06-27T09:11:19.552Z,46.19
2019-06-27T09:13:47.977Z,46.25
2019-06-27T09:16:16.433Z,44.82
2019-06-27T09:18:44.867Z,44.76
2019-06-27T09:21:13.369Z,45.04
2019-06-27T09:23:41.911Z,45.35
2019-06-27T09:26:10.396Z,43.81
2019-06-27T09:28:38.830Z,42.36
2019-06-27T09:31:07.372Z,43.07
2019-06-27T09:33:35.796Z,43.11
2019-06-27T09:36:04.869Z,43.14
2019-06-27T09:38:33.326Z,42.98
2019-06-27T09:41:01.815Z,42.99
2019-06-27T09:43:30.229Z,42.57
2019-06-27T09:45:58.706Z,42.09
2019-06-27T09:48:27.154Z,43.57
2019-06-27T09:50:55.583Z,43.80
2019-06-27T09:53:24.047Z,42.24
2019-06-27T09:55:52.615Z,43.00
2019-06-27T09:58:21.047Z,42.55
2019-06-27T10:00:49.855Z,42.89
2019-06-27T10:03:18.294Z,42.22
2019-06-27T10:05:46.858Z,42.64
2019-06-27T10:08:15.324Z,43.08
2019-06-27T10:10:43.947Z,42.63
2019-06-27T10:13:12.504Z,42.34
2019-06-27T10:15:40.955Z,41.30
2019-06-27T10:18:09.457Z,41.90
2019-06-27T10:20:37.862Z,40.84
2019-06-27T10:23:06.381Z,39.24
2019-06-27T10:25:38.089Z,39.71
2019-06-27T10:28:05.130Z,40.43
2019-06-27T10:30:33.608Z,41.09
2019-06-27T10:33:02.049Z,41.31
2019-06-27T10:35:30.477Z,41.45
2019-06-27T10:37:58.945Z,40.53
2019-06-27T10:40:29.011Z,39.11
2019-06-27T10:42:57.448Z,40.15
2019-06-27T10:45:26.061Z,40.97
2019-06-27T10:47:54.562Z,40.61
2019-06-27T10:50:23.135Z,40.20
2019-06-27T10:52:51.738Z,39.07
2019-06-27T10:55:20.453Z,37.54
2019-06-27T10:57:48.930Z,38.40
2019-06-27T11:00:19.099Z,37.20
2019-06-27T11:02:47.603Z,35.66
2019-06-27T11:05:16.279Z,37.06
2019-06-27T11:07:44.833Z,38.58
2019-06-27T11:10:14.021Z,37.65
2019-06-27T11:12:45.004Z,37.87
2019-06-27T11:15:14.568Z,36.05
2019-06-27T11:17:43.000Z,35.57
2019-06-27T11:20:15.157Z,36.01
2019-06-27T11:22:42.245Z,34.75
2019-06-27T11:25:11.210Z,37.18
2019-06-27T11:27:39.726Z,36.56
2019-06-27T11:30:09.389Z,34.21
2019-06-27T11:32:38.065Z,35.22
2019-06-27T11:35:07.724Z,36.13
2019-06-27T11:37:36.192Z,35.98
2019-06-27T11:40:06.584Z,35.93
2019-06-27T11:42:35.076Z,36.24
2019-06-27T11:45:05.718Z,35.58
2019-06-27T11:47:34.660Z,37.29
2019-06-27T11:50:03.796Z,35.80
2019-06-27T11:52:32.517Z,36.15
2019-06-27T11:55:00.950Z,36.09
2019-06-27T11:57:29.394Z,36.63
2019-06-27T11:59:57.840Z,36.17
2019-06-27T12:02:26.271Z,37.04
2019-06-27T12:04:54.796Z,36.52
2019-06-27T12:07:23.486Z,35.89
2019-06-27T12:09:51.922Z,35.84
2019-06-27T12:12:20.468Z,35.70
2019-06-27T12:14:49.004Z,36.14
2019-06-27T12:17:17.417Z,35.95
2019-06-27T12:19:45.847Z,35.37
2019-06-27T12:22:14.390Z,36.11
2019-06-27T12:24:42.839Z,36.62
2019-06-27T12:27:11.281Z,36.01
2019-06-27T12:29:39.902Z,35.29
2019-06-27T12:32:08.336Z,36.63
2019-06-27T12:34:36.827Z,37.62
2019-06-27T12:37:05.306Z,37.14
2019-06-27T12:39:33.759Z,36.82
2019-06-27T12:42:02.191Z,37.38
2019-06-27T12:44:30.718Z,36.83
2019-06-27T12:46:59.159Z,36.36
2019-06-27T12:49:44.807Z,35.80
2019-06-27T12:51:57.802Z,35.43
2019-06-27T12:54:26.212Z,35.69
2019-06-27T12:56:54.645Z,35.62
2019-06-27T12:59:23.316Z,36.40
2019-06-27T13:01:51.760Z,36.74
2019-06-27T13:04:23.915Z,35.56
2019-06-27T13:06:50.395Z,35.25
2019-06-27T13:09:18.835Z,35.60
2019-06-27T13:11:47.367Z,35.70
2019-06-27T13:14:15.885Z,34.32
2019-06-27T13:16:44.356Z,34.70
2019-06-27T13:19:12.810Z,34.94
2019-06-27T13:21:41.382Z,35.47
2019-06-27T13:24:09.823Z,35.84
2019-06-27T13:26:38.398Z,35.35
2019-06-27T13:29:06.909Z,34.76
2019-06-27T13:31:35.450Z,35.19
2019-06-27T13:34:03.888Z,34.82
2019-06-27T13:36:33.496Z,34.84
2019-06-27T13:39:06.020Z,34.73
2019-06-27T13:41:32.293Z,34.52
2019-06-27T13:44:00.755Z,35.02
2019-06-27T13:46:29.210Z,35.19
2019-06-27T13:48:57.655Z,34.82
2019-06-27T13:51:26.158Z,35.03
2019-06-27T13:53:54.677Z,35.27
2019-06-27T13:56:23.153Z,34.27
2019-06-27T13:58:51.605Z,35.15
2019-06-27T14:01:20.169Z,34.98
2019-06-27T14:03:50.016Z,35.81
2019-06-27T14:06:18.636Z,35.34
2019-06-27T14:08:47.164Z,36.14
2019-06-27T14:11:15.620Z,35.21
2019-06-27T14:13:44.392Z,33.44
2019-06-27T14:16:13.022Z,32.19
2019-06-27T14:18:41.547Z,31.92
2019-06-27T14:21:10.158Z,33.11
2019-06-27T14:23:38.601Z,33.41
2019-06-27T14:26:07.036Z,33.74
2019-06-27T14:28:35.608Z,32.72
2019-06-27T14:31:04.033Z,33.28
2019-06-27T14:33:32.549Z,32.95
2019-06-27T14:36:01.168Z,32.90
2019-06-27T14:38:29.705Z,32.05
2019-06-27T14:40:58.129Z,31.81
2019-06-27T14:43:26.678Z,31.37
2019-06-27T14:45:55.189Z,30.62
2019-06-27T14:48:23.624Z,30.86
2019-06-27T14:50:52.170Z,30.66
2019-06-27T14:53:20.577Z,30.37
2019-06-27T14:55:49.091Z,30.40
2019-06-27T14:58:17.582Z,30.13
2019-06-27T15:00:46.285Z,29.92
2019-06-27T15:03:14.804Z,30.02
2019-06-27T15:05:43.446Z,29.97
2019-06-27T15:08:11.875Z,30.28
2019-06-27T15:10:40.388Z,30.54
2019-06-27T15:13:08.871Z,30.72
2019-06-27T15:15:37.279Z,30.28
2019-06-27T15:18:05.782Z,29.39
2019-06-27T15:20:34.234Z,29.87
2019-06-27T15:23:02.745Z,29.84
2019-06-27T15:25:31.321Z,29.82
2019-06-27T15:27:59.770Z,29.12
2019-06-27T15:30:28.231Z,28.87
2019-06-27T15:32:56.801Z,28.48
2019-06-27T15:35:25.302Z,29.23
2019-06-27T15:37:53.761Z,28.48
2019-06-27T15:40:22.432Z,28.30
2019-06-27T15:42:50.895Z,27.72
2019-06-27T15:45:19.470Z,28.82
2019-06-27T15:47:48.114Z,28.04
2019-06-27T15:50:16.622Z,28.20
2019-06-27T15:52:45.130Z,29.08
2019-06-27T15:55:13.994Z,29.19
2019-06-27T15:57:42.676Z,28.24
2019-06-27T16:00:11.819Z,26.95
2019-06-27T16:02:40.433Z,27.97
2019-06-27T16:05:09.315Z,27.13
2019-06-27T16:07:37.756Z,26.74
2019-06-27T16:10:07.337Z,26.80
2019-06-27T16:12:35.796Z,26.60
2019-06-27T16:15:06.815Z,25.88
2019-06-27T16:17:35.283Z,25.81
2019-06-27T16:20:06.693Z,26.51
2019-06-27T16:22:35.190Z,26.68
2019-06-27T16:25:04.058Z,25.70
2019-06-27T16:27:32.750Z,25.48
2019-06-27T16:30:01.182Z,25.13
2019-06-27T16:32:29.997Z,25.45
2019-06-27T16:34:58.712Z,24.86
2019-06-27T16:37:27.145Z,25.14
2019-06-27T16:39:55.588Z,24.88
2019-06-27T16:42:24.041Z,27.67
2019-06-27T16:44:52.495Z,25.40
2019-06-27T16:47:21.095Z,24.99
2019-06-27T16:49:49.724Z,25.96
2019-06-27T16:52:18.193Z,26.42
2019-06-27T16:54:46.615Z,25.32
2019-06-27T16:57:15.132Z,25.61
2019-06-27T16:59:43.638Z,25.06
2019-06-27T17:02:12.145Z,24.59
2019-06-27T17:04:40.655Z,24.45
2019-06-27T17:07:09.101Z,23.91
2019-06-27T17:09:37.527Z,24.44
2019-06-27T17:12:06.054Z,24.51
2019-06-27T17:14:34.492Z,26.67
2019-06-27T17:17:02.933Z,26.30
2019-06-27T17:19:31.386Z,24.07
2019-06-27T17:21:59.813Z,24.89
2019-06-27T17:24:28.249Z,24.38
2019-06-27T17:26:56.853Z,24.63
2019-06-27T17:29:25.591Z,24.80
2019-06-27T17:31:54.046Z,24.68
2019-06-27T17:34:22.622Z,25.03
2019-06-27T17:36:57.495Z,25.74
2019-06-27T17:39:21.217Z,27.63
2019-06-27T17:41:49.804Z,26.00
2019-06-27T17:44:19.978Z,26.33
2019-06-27T17:46:48.595Z,27.03
2019-06-27T17:49:17.114Z,27.24
2019-06-27T17:51:45.546Z,27.55
2019-06-27T17:54:14.042Z,27.89
2019-06-27T17:56:42.486Z,28.47
2019-06-27T17:59:10.943Z,28.55
2019-06-27T18:01:39.372Z,28.86
2019-06-27T18:04:07.855Z,29.25
2019-06-27T18:06:36.280Z,29.08
2019-06-27T18:09:05.141Z,29.35
2019-06-27T18:11:33.676Z,30.19
2019-06-27T18:14:02.119Z,29.95
2019-06-27T18:16:30.546Z,29.83
2019-06-27T18:19:00.686Z,29.91
2019-06-27T18:21:29.367Z,30.30
2019-06-27T18:23:57.891Z,30.71
2019-06-27T18:26:26.422Z,31.64
2019-06-27T18:28:54.935Z,31.57
2019-06-27T18:31:23.453Z,31.73
2019-06-27T18:33:52.058Z,31.53
2019-06-27T18:36:20.507Z,31.77
2019-06-27T18:38:48.937Z,32.46
2019-06-27T18:41:17.636Z,31.71
2019-06-27T18:43:46.069Z,31.94
2019-06-27T18:46:14.504Z,32.10
2019-06-27T18:48:43.018Z,32.31
2019-06-27T18:51:11.471Z,31.32
2019-06-27T18:53:40.105Z,31.91
2019-06-27T18:56:08.622Z,31.40
2019-06-27T18:58:37.051Z,31.56
2019-06-27T19:01:05.493Z,31.69
2019-06-27T19:03:33.971Z,31.24
2019-06-27T19:06:02.474Z,31.34
2019-06-27T19:08:30.984Z,30.81
2019-06-27T19:10:59.690Z,31.00
2019-06-27T19:13:28.142Z,30.71
2019-06-27T19:15:56.548Z,30.71
2019-06-27T19:18:43.141Z,30.75
2019-06-27T19:21:29.917Z,30.64
2019-06-27T19:24:00.101Z,31.19
2019-06-27T19:26:28.610Z,31.34
2019-06-27T19:28:57.057Z,31.19
2019-06-27T19:31:25.688Z,31.96
2019-06-27T19:33:54.120Z,32.11
2019-06-27T19:36:22.559Z,31.79
2019-06-27T19:38:51.081Z,31.80
2019-06-27T19:41:19.724Z,31.94
2019-06-27T19:43:48.246Z,32.01
2019-06-27T19:46:16.900Z,32.12
2019-06-27T19:48:45.835Z,32.51
2019-06-27T19:51:14.251Z,32.77
2019-06-27T19:53:42.874Z,33.90
2019-06-27T19:56:11.327Z,33.93
2019-06-27T19:58:39.868Z,33.85
2019-06-27T20:01:08.400Z,34.19
2019-06-27T20:03:36.835Z,33.94
2019-06-27T20:06:05.447Z,33.29
2019-06-27T20:08:33.991Z,33.88
2019-06-27T20:11:02.419Z,33.00
2019-06-27T20:13:30.872Z,32.75
2019-06-27T20:15:59.544Z,32.92
2019-06-27T20:18:28.053Z,33.15
2019-06-27T20:20:56.566Z,32.82
2019-06-27T20:23:25.317Z,32.85
2019-06-27T20:25:53.842Z,32.71
2019-06-27T20:28:22.296Z,33.55
2019-06-27T20:30:50.884Z,33.35
2019-06-27T20:33:19.392Z,35.16
2019-06-27T20:35:47.963Z,38.00
2019-06-27T20:38:16.418Z,39.50
2019-06-27T20:40:44.933Z,39.30
2019-06-27T20:43:13.436Z,39.77
2019-06-27T20:45:42.008Z,41.30
2019-06-27T20:48:10.511Z,41.85
2019-06-27T20:50:38.949Z,42.80
2019-06-27T20:53:07.471Z,42.12
2019-06-27T20:55:36.026Z,42.19
2019-06-27T20:58:04.596Z,43.26
2019-06-27T21:00:33.222Z,44.06
2019-06-27T21:03:01.923Z,44.45
2019-06-27T21:05:30.475Z,45.04
2019-06-27T21:07:58.950Z,45.75
2019-06-27T21:10:27.445Z,45.54
2019-06-27T21:12:55.939Z,47.10
2019-06-27T21:15:24.721Z,46.14
2019-06-27T21:17:53.306Z,44.73
2019-06-27T21:20:21.961Z,44.13
2019-06-27T21:22:50.493Z,43.12
2019-06-27T21:25:19.592Z,43.14
2019-06-27T21:27:48.093Z,43.72
2019-06-27T21:30:16.904Z,44.02
2019-06-27T21:32:48.352Z,47.29
2019-06-27T21:35:15.626Z,48.87
2019-06-27T21:37:44.165Z,49.55
2019-06-27T21:40:13.720Z,50.69
2019-06-27T21:42:42.150Z,51.20
2019-06-27T21:45:11.255Z,51.71
2019-06-27T21:47:39.755Z,50.64
2019-06-27T21:50:08.821Z,48.63
2019-06-27T21:52:37.296Z,48.15
2019-06-27T21:55:06.996Z,47.97
2019-06-27T21:57:35.481Z,49.72
2019-06-27T22:00:08.986Z,49.04
2019-06-27T22:02:37.530Z,47.60
2019-06-27T22:05:07.207Z,46.51
2019-06-27T22:07:35.738Z,48.44
2019-06-27T22:10:06.011Z,51.36
2019-06-27T22:12:34.623Z,52.68
2019-06-27T22:15:04.790Z,54.30
2019-06-27T22:17:33.277Z,55.20
2019-06-27T22:20:14.450Z,54.90
2019-06-27T22:22:31.907Z,54.81
2019-06-27T22:25:00.406Z,53.93
2019-06-27T22:27:28.903Z,53.75
2019-06-27T22:29:57.426Z,51.63
2019-06-27T22:32:25.882Z,51.78
2019-06-27T22:34:54.326Z,53.68
2019-06-27T22:37:24.457Z,53.96
2019-06-27T22:40:12.367Z,54.03
2019-06-27T22:43:04.072Z,54.10
2019-06-27T22:45:48.375Z,54.39
2019-06-27T22:48:16.415Z,54.49
2019-06-27T22:50:51.214Z,54.57
2019-06-27T22:53:34.736Z,54.96
2019-06-27T22:56:03.556Z,55.60
2019-06-27T22:58:32.053Z,56.05
2019-06-27T23:01:00.685Z,55.97
2019-06-27T23:03:29.136Z,56.20
2019-06-27T23:05:57.547Z,56.37
2019-06-27T23:08:26.069Z,56.98
2019-06-27T23:10:54.497Z,57.84
2019-06-27T23:13:22.931Z,57.36
2019-06-27T23:15:51.395Z,57.70
2019-06-27T23:18:19.944Z,58.40
2019-06-27T23:20:48.474Z,58.52
2019-06-27T23:23:17.062Z,59.04
2019-06-27T23:25:45.445Z,58.00
2019-06-27T23:28:13.871Z,58.78
2019-06-27T23:30:57.224Z,59.39
2019-06-27T23:33:25.655Z,59.94
2019-06-27T23:35:54.089Z,60.20
2019-06-27T23:38:22.620Z,61.14
2019-06-27T23:40:51.048Z,59.72
2019-06-27T23:43:19.476Z,61.21
2019-06-27T23:45:47.935Z,62.23
2019-06-27T23:48:16.362Z,62.69
2019-06-27T23:50:44.808Z,62.67
2019-06-27T23:53:13.440Z,63.11
2019-06-27T23:55:41.870Z,63.08
2019-06-27T23:58:10.374Z,62.88
